Airfield :
LOGIN :

Register | Disclaimer

   EN    FR    IT 

 










Legend :    VFR   Marginal VFR   IFR   Intensive IFR   Very Intensive IFR
Visi :
Ceiling :
>= 8 km
>= 3000ft
5 to 8 km
1000 to 3000 ft
1500m to 5 km
500 to 1000 ft
800 to 1500m
200 to 500 ft
< 800m
< 200 ft
Symbols :   Thunderstorms  Fog  Heavy snow  Heavy precipitations  Wind > 20 kt
SIGMETs :     Misc.  Thunderstorms  Icing  Turbulence  Mountain Waves  Volcanic Ashes







- Airport Elevation : 333 ft


LIPL - Ghedi Brescia (Mil)

CURRENT METAR :
  • 232255Z /////KT 2000 BR SCT050 SCT060 07/07 Q1021 RMK BKN VIS MIN 2000 WIND THR31 06001KT YLO

EXPIRED METARs :
  • 232155Z /////KT 2000 BR SCT050 SCT065 07/07 Q1021 RMK BKN VIS MIN 2000 WIND THR31 10002KT YLO
  • 232055Z /////KT 1600 BR SCT050 07/07 Q1021 RMK SCT VIS MIN 1600 WIND THR31 02001KT YLO

TAF TAF LIPL
Valid from the 24 at 00:00 until the 24 at 09:00 UTC


232300Z 2400/2409 VRB03KT 2000 BR SCT040 SCT060
TEMPO 2400/2407 0700 FG SCT003 SCT030
No reported NOTAMs for that airfield.



MET'MAP, your aeronautical weather chart ! - Copyright ORBIFLY December 2007 - Disclaimer

ORBIFLY MET'MAP TEAM :

Programming & Development : Alexandra Zaïnal
Concept & Development : Baudouin d'Aumeries
Co-Development & Prog : Marc-Olivier Méhu
Technical & hardware support : Manuel Goepfert

Contact : metmap@orbifly.com




SOURCES & CREDITS :

   NOAA